createdAt,value
2019-02-19T00:00:55.726Z,19.44
2019-02-19T00:01:52.513Z,19.44
2019-02-19T00:02:49.145Z,19.44
2019-02-19T00:03:45.798Z,19.44
2019-02-19T00:04:42.377Z,19.44
2019-02-19T00:05:39.022Z,19.44
2019-02-19T00:06:35.615Z,19.44
2019-02-19T00:07:32.383Z,19.44
2019-02-19T00:08:29.023Z,19.44
2019-02-19T00:09:25.626Z,19.44
2019-02-19T00:10:22.313Z,19.44
2019-02-19T00:11:19.192Z,19.37
2019-02-19T00:12:15.868Z,19.37
2019-02-19T00:13:12.464Z,19.37
2019-02-19T00:14:09.062Z,19.37
2019-02-19T00:15:08.234Z,19.37
2019-02-19T00:16:04.207Z,19.37
2019-02-19T00:17:01.389Z,19.37
2019-02-19T00:17:58.069Z,19.37
2019-02-19T00:18:54.666Z,19.37
2019-02-19T00:19:51.273Z,19.37
2019-02-19T00:20:47.968Z,19.37
2019-02-19T00:21:44.648Z,19.37
2019-02-19T00:22:41.380Z,19.37
2019-02-19T00:23:38.065Z,19.37
2019-02-19T00:24:34.668Z,19.37
2019-02-19T00:25:31.279Z,19.37
2019-02-19T00:26:27.969Z,19.37
2019-02-19T00:27:24.565Z,19.31
2019-02-19T00:28:21.529Z,19.37
2019-02-19T00:29:18.121Z,19.31
2019-02-19T00:30:15.087Z,19.31
2019-02-19T00:31:11.701Z,19.31
2019-02-19T00:32:08.289Z,19.31
2019-02-19T00:33:05.194Z,19.31
2019-02-19T00:34:01.885Z,19.31
2019-02-19T00:34:58.791Z,19.31
2019-02-19T00:35:55.373Z,19.31
2019-02-19T00:36:52.013Z,19.31
2019-02-19T00:37:48.606Z,19.31
2019-02-19T00:38:45.181Z,19.31
2019-02-19T00:39:41.773Z,19.31
2019-02-19T00:40:38.403Z,19.31
2019-02-19T00:41:35.233Z,19.31
2019-02-19T00:42:31.886Z,19.31
2019-02-19T00:43:28.473Z,19.31
2019-02-19T00:44:25.053Z,19.31
2019-02-19T00:45:21.673Z,19.25
2019-02-19T00:46:18.293Z,19.25
2019-02-19T00:47:15.206Z,19.25
2019-02-19T00:48:11.778Z,19.25
2019-02-19T00:49:08.377Z,19.25
2019-02-19T00:50:04.979Z,19.25
2019-02-19T00:51:01.554Z,19.25
2019-02-19T00:51:58.220Z,19.25
2019-02-19T00:52:55.009Z,19.25
2019-02-19T00:53:51.634Z,19.25
2019-02-19T00:54:48.224Z,19.25
2019-02-19T00:55:44.830Z,19.25
2019-02-19T00:56:41.417Z,19.25
2019-02-19T00:57:38.021Z,19.25
2019-02-19T00:58:34.618Z,19.25
2019-02-19T00:59:31.546Z,19.25
2019-02-19T01:00:28.237Z,19.25
2019-02-19T01:01:24.825Z,19.25
2019-02-19T01:02:21.778Z,19.25
2019-02-19T01:03:18.368Z,19.25
2019-02-19T01:04:14.954Z,19.19
2019-02-19T01:05:11.548Z,19.19
2019-02-19T01:06:08.145Z,19.19
2019-02-19T01:07:05.081Z,19.19
2019-02-19T01:08:01.698Z,19.19
2019-02-19T01:08:58.256Z,19.19
2019-02-19T01:09:54.845Z,19.19
2019-02-19T01:10:51.469Z,19.19
2019-02-19T01:11:48.059Z,19.19
2019-02-19T01:12:44.689Z,19.19
2019-02-19T01:13:41.453Z,19.19
2019-02-19T01:14:38.078Z,19.19
2019-02-19T01:15:34.678Z,19.19
2019-02-19T01:16:31.285Z,19.19
2019-02-19T01:17:27.898Z,19.19
2019-02-19T01:18:24.816Z,19.19
2019-02-19T01:19:21.446Z,19.19
2019-02-19T01:20:18.129Z,19.19
2019-02-19T01:21:14.729Z,19.19
2019-02-19T01:22:11.585Z,19.19
2019-02-19T01:23:08.241Z,19.12
2019-02-19T01:24:04.848Z,19.19
2019-02-19T01:25:01.483Z,19.12
2019-02-19T01:25:58.106Z,19.12
2019-02-19T01:26:54.847Z,19.12
2019-02-19T01:27:51.493Z,19.12
2019-02-19T01:28:48.108Z,19.12
2019-02-19T01:29:44.709Z,19.12
2019-02-19T01:30:41.313Z,19.12
2019-02-19T01:31:37.903Z,19.12
2019-02-19T01:32:34.495Z,19.12
2019-02-19T01:33:31.133Z,19.12
2019-02-19T01:34:27.930Z,19.12
2019-02-19T01:35:24.529Z,19.12
2019-02-19T01:36:21.122Z,19.12
2019-02-19T01:37:17.722Z,19.12
2019-02-19T01:38:14.441Z,19.12
2019-02-19T01:39:11.181Z,19.12
2019-02-19T01:40:07.784Z,19.12
2019-02-19T01:41:04.376Z,19.12
2019-02-19T01:42:00.960Z,19.12
2019-02-19T01:42:57.666Z,19.12
2019-02-19T01:43:54.397Z,19.06
2019-02-19T01:44:51.037Z,19.06
2019-02-19T01:45:47.778Z,19.06
2019-02-19T01:46:44.488Z,19.06
2019-02-19T01:47:41.387Z,19.06
2019-02-19T01:48:38.014Z,19.06
2019-02-19T01:49:34.605Z,19.06
2019-02-19T01:50:31.233Z,19.06
2019-02-19T01:51:28.208Z,19.06
2019-02-19T01:52:24.811Z,19.06
2019-02-19T01:53:21.398Z,19.06
2019-02-19T01:54:18.008Z,19.06
2019-02-19T01:55:14.658Z,19.06
2019-02-19T01:56:11.409Z,19.06
2019-02-19T01:57:08.106Z,19.06
2019-02-19T01:58:04.681Z,19.06
2019-02-19T01:59:01.262Z,19.06
2019-02-19T01:59:57.857Z,19.06
2019-02-19T02:00:54.536Z,19.06
2019-02-19T02:01:52.336Z,19.06
2019-02-19T02:02:52.966Z,19.06
2019-02-19T02:03:49.752Z,19.06
2019-02-19T02:04:46.461Z,19.00
2019-02-19T02:05:43.066Z,19.00
2019-02-19T02:06:39.649Z,19.00
2019-02-19T02:07:36.246Z,19.00
2019-02-19T02:08:32.937Z,19.00
2019-02-19T02:09:29.833Z,19.00
2019-02-19T02:10:26.421Z,19.00
2019-02-19T02:11:23.018Z,19.00
2019-02-19T02:12:19.866Z,19.00
2019-02-19T02:13:16.451Z,19.00
2019-02-19T02:14:13.052Z,19.00
2019-02-19T02:15:09.665Z,19.00
2019-02-19T02:16:06.273Z,19.00
2019-02-19T02:17:02.853Z,19.00
2019-02-19T02:17:59.455Z,19.00
2019-02-19T02:18:56.087Z,19.00
2019-02-19T02:19:52.721Z,19.00
2019-02-19T02:20:49.326Z,19.00
2019-02-19T02:21:46.119Z,19.00
2019-02-19T02:22:42.778Z,19.00
2019-02-19T02:23:39.371Z,19.00
2019-02-19T02:24:36.001Z,18.94
2019-02-19T02:25:32.594Z,18.94
2019-02-19T02:26:29.345Z,19.00
2019-02-19T02:27:25.932Z,18.94
2019-02-19T02:28:22.521Z,18.94
2019-02-19T02:29:19.155Z,18.94
2019-02-19T02:30:15.755Z,18.94
2019-02-19T02:31:12.333Z,18.94
2019-02-19T02:32:08.917Z,18.94
2019-02-19T02:33:05.513Z,18.94
2019-02-19T02:34:02.201Z,18.94
2019-02-19T02:34:58.782Z,18.94
2019-02-19T02:35:55.419Z,18.94
2019-02-19T02:36:52.274Z,18.94
2019-02-19T02:37:48.871Z,18.94
2019-02-19T02:38:45.715Z,18.94
2019-02-19T02:39:42.301Z,18.94
2019-02-19T02:40:38.933Z,18.94
2019-02-19T02:41:35.517Z,18.94
2019-02-19T02:42:32.130Z,18.94
2019-02-19T02:43:28.714Z,18.94
2019-02-19T02:44:25.296Z,18.94
2019-02-19T02:45:21.951Z,18.94
2019-02-19T02:46:18.629Z,18.94
2019-02-19T02:47:15.220Z,18.94
2019-02-19T02:48:11.929Z,18.94
2019-02-19T02:49:08.544Z,18.87
2019-02-19T02:50:05.242Z,18.87
2019-02-19T02:51:02.160Z,18.87
2019-02-19T02:51:58.839Z,18.87
2019-02-19T02:52:55.512Z,18.87
2019-02-19T02:53:52.293Z,18.87
2019-02-19T02:54:48.896Z,18.87
2019-02-19T02:55:45.505Z,18.87
2019-02-19T02:56:42.110Z,18.87
2019-02-19T02:57:38.705Z,18.87
2019-02-19T02:58:35.309Z,18.87
2019-02-19T02:59:32.558Z,18.87
2019-02-19T03:00:29.241Z,18.87
2019-02-19T03:01:25.878Z,18.87
2019-02-19T03:02:22.489Z,18.87
2019-02-19T03:03:19.088Z,18.87
2019-02-19T03:04:15.999Z,18.87
2019-02-19T03:05:12.724Z,18.87
2019-02-19T03:06:31.679Z,18.87
2019-02-19T03:07:32.893Z,18.87
2019-02-19T03:08:29.561Z,18.87
2019-02-19T03:09:26.153Z,18.87
2019-02-19T03:10:22.758Z,18.87
2019-02-19T03:11:19.377Z,18.87
2019-02-19T03:12:15.982Z,18.87
2019-02-19T03:13:12.573Z,18.87
2019-02-19T03:14:09.167Z,18.81
2019-02-19T03:15:05.775Z,18.81
2019-02-19T03:16:02.861Z,18.81
2019-02-19T03:16:59.717Z,18.81
2019-02-19T03:17:56.298Z,18.81
2019-02-19T03:18:52.909Z,18.81
2019-02-19T03:19:49.507Z,18.81
2019-02-19T03:20:46.726Z,18.81
2019-02-19T03:21:43.414Z,18.81
2019-02-19T03:22:40.049Z,18.81
2019-02-19T03:23:36.732Z,18.81
2019-02-19T03:24:33.330Z,18.81
2019-02-19T03:25:29.926Z,18.81
2019-02-19T03:26:26.513Z,18.81
2019-02-19T03:27:23.130Z,18.81
2019-02-19T03:28:19.799Z,18.81
2019-02-19T03:29:16.497Z,18.81
2019-02-19T03:30:13.103Z,18.81
2019-02-19T03:31:09.678Z,18.81
2019-02-19T03:32:06.293Z,18.81
2019-02-19T03:33:02.887Z,18.81
2019-02-19T03:33:59.459Z,18.81
2019-02-19T03:34:56.069Z,18.81
2019-02-19T03:35:52.646Z,18.81
2019-02-19T03:36:49.233Z,18.81
2019-02-19T03:37:45.912Z,18.81
2019-02-19T03:38:42.606Z,18.75
2019-02-19T03:39:39.290Z,18.75
2019-02-19T03:40:35.950Z,18.75
2019-02-19T03:41:32.912Z,18.75
2019-02-19T03:42:29.548Z,18.75
2019-02-19T03:43:26.145Z,18.75
2019-02-19T03:44:22.729Z,18.75
2019-02-19T03:45:19.338Z,18.75
2019-02-19T03:46:16.149Z,18.75
2019-02-19T03:47:12.770Z,18.75
2019-02-19T03:48:09.359Z,18.75
2019-02-19T03:49:06.064Z,18.75
2019-02-19T03:50:02.946Z,18.75
2019-02-19T03:50:59.609Z,18.75
2019-02-19T03:51:56.209Z,18.75
2019-02-19T03:52:52.825Z,18.75
2019-02-19T03:53:49.414Z,18.75
2019-02-19T03:54:46.322Z,18.75
2019-02-19T03:55:42.997Z,18.75
2019-02-19T03:56:39.594Z,18.75
2019-02-19T03:57:36.201Z,18.75
2019-02-19T03:58:33.157Z,18.75
2019-02-19T03:59:29.767Z,18.75
2019-02-19T04:00:26.349Z,18.75
2019-02-19T04:01:22.975Z,18.75
2019-02-19T04:02:19.589Z,18.75
2019-02-19T04:03:16.449Z,18.69
2019-02-19T04:04:13.061Z,18.69
2019-02-19T04:05:09.648Z,18.69
2019-02-19T04:06:06.234Z,18.75
2019-02-19T04:07:02.851Z,18.69
2019-02-19T04:07:59.528Z,18.69
2019-02-19T04:08:56.137Z,18.69
2019-02-19T04:09:52.828Z,18.69
2019-02-19T04:10:49.457Z,18.69
2019-02-19T04:11:46.068Z,18.69
2019-02-19T04:12:42.661Z,18.69
2019-02-19T04:13:39.273Z,18.69
2019-02-19T04:14:35.910Z,18.69
2019-02-19T04:15:32.724Z,18.69
2019-02-19T04:16:29.394Z,18.69
2019-02-19T04:17:25.990Z,18.69
2019-02-19T04:18:22.599Z,18.69
2019-02-19T04:19:19.209Z,18.69
2019-02-19T04:20:15.790Z,18.69
2019-02-19T04:21:12.718Z,18.69
2019-02-19T04:22:09.368Z,18.69
2019-02-19T04:23:06.323Z,18.69
2019-02-19T04:24:03.027Z,18.69
2019-02-19T04:24:59.629Z,18.69
2019-02-19T04:25:56.254Z,18.69
2019-02-19T04:26:52.942Z,18.69
2019-02-19T04:27:49.567Z,18.69
2019-02-19T04:28:46.154Z,18.69
2019-02-19T04:29:42.775Z,18.69
2019-02-19T04:30:39.373Z,18.69
2019-02-19T04:31:35.970Z,18.69
2019-02-19T04:32:32.558Z,18.69
2019-02-19T04:33:29.149Z,18.62
2019-02-19T04:34:25.739Z,18.62
2019-02-19T04:35:22.734Z,18.62
2019-02-19T04:36:19.420Z,18.62
2019-02-19T04:37:16.022Z,18.62
2019-02-19T04:38:12.918Z,18.62
2019-02-19T04:39:09.632Z,18.62
2019-02-19T04:40:06.324Z,18.62
2019-02-19T04:41:03.019Z,18.62
2019-02-19T04:41:59.710Z,18.62
2019-02-19T04:42:56.477Z,18.62
2019-02-19T04:43:53.202Z,18.62
2019-02-19T04:44:49.804Z,18.62
2019-02-19T04:45:46.406Z,18.62
2019-02-19T04:46:42.993Z,18.62
2019-02-19T04:47:39.577Z,18.62
2019-02-19T04:48:36.169Z,18.62
2019-02-19T04:49:32.809Z,18.62
2019-02-19T04:50:29.418Z,18.62
2019-02-19T04:51:26.261Z,18.62
2019-02-19T04:52:22.847Z,18.62
2019-02-19T04:53:19.431Z,18.62
2019-02-19T04:54:16.012Z,18.62
2019-02-19T04:55:12.626Z,18.62
2019-02-19T04:56:09.210Z,18.62
2019-02-19T04:57:05.816Z,18.62
2019-02-19T04:58:02.417Z,18.62
2019-02-19T04:58:59.188Z,18.56
2019-02-19T04:59:55.777Z,18.62
2019-02-19T05:00:52.405Z,18.56
2019-02-19T05:01:48.994Z,17.75
2019-02-19T05:02:45.609Z,17.19
2019-02-19T05:03:42.221Z,17.19
2019-02-19T05:04:38.805Z,17.50
2019-02-19T05:05:35.442Z,18.75
2019-02-19T05:06:32.242Z,20.81
2019-02-19T05:07:28.907Z,23.44
2019-02-19T05:08:25.505Z,25.88
2019-02-19T05:09:22.094Z,27.87
2019-02-19T05:10:18.730Z,29.37
2019-02-19T05:11:15.613Z,30.56
2019-02-19T05:12:12.327Z,31.37
2019-02-19T05:13:09.011Z,32.00
2019-02-19T05:14:05.604Z,32.44
2019-02-19T05:15:02.320Z,32.75
2019-02-19T05:15:59.037Z,33.06
2019-02-19T05:16:55.637Z,33.38
2019-02-19T05:17:52.221Z,33.63
2019-02-19T05:18:48.810Z,33.94
2019-02-19T05:19:45.746Z,34.25
2019-02-19T05:20:42.365Z,34.56
2019-02-19T05:21:39.007Z,34.81
2019-02-19T05:22:35.619Z,35.13
2019-02-19T05:23:32.414Z,35.44
2019-02-19T05:24:29.103Z,35.69
2019-02-19T05:25:25.733Z,36.00
2019-02-19T05:26:22.354Z,36.25
2019-02-19T05:27:18.981Z,36.44
2019-02-19T05:28:15.768Z,36.75
2019-02-19T05:29:12.494Z,36.94
2019-02-19T05:30:09.106Z,37.19
2019-02-19T05:31:05.722Z,37.38
2019-02-19T05:32:02.736Z,37.63
2019-02-19T05:32:59.420Z,37.94
2019-02-19T05:33:56.026Z,38.19
2019-02-19T05:34:52.604Z,38.38
2019-02-19T05:35:49.361Z,38.63
2019-02-19T05:36:45.949Z,38.81
2019-02-19T05:37:42.558Z,39.06
2019-02-19T05:38:39.167Z,39.25
2019-02-19T05:39:35.760Z,39.38
2019-02-19T05:40:32.377Z,39.31
2019-02-19T05:41:29.214Z,39.06
2019-02-19T05:42:25.812Z,38.75
2019-02-19T05:43:22.414Z,38.56
2019-02-19T05:44:19.092Z,38.44
2019-02-19T05:45:15.701Z,38.25
2019-02-19T05:46:12.330Z,38.13
2019-02-19T05:47:09.088Z,38.06
2019-02-19T05:48:05.687Z,37.94
2019-02-19T05:49:02.285Z,37.81
2019-02-19T05:49:58.921Z,37.56
2019-02-19T05:50:55.586Z,37.13
2019-02-19T05:51:52.247Z,36.38
2019-02-19T05:52:49.018Z,35.38
2019-02-19T05:53:45.694Z,34.06
2019-02-19T05:54:42.396Z,32.75
2019-02-19T05:55:39.145Z,31.87
2019-02-19T05:56:35.869Z,32.06
2019-02-19T05:57:32.451Z,33.25
2019-02-19T05:58:29.410Z,34.75
2019-02-19T05:59:26.000Z,36.25
2019-02-19T06:00:22.590Z,37.63
2019-02-19T06:01:19.211Z,38.63
2019-02-19T06:02:16.259Z,39.06
2019-02-19T06:03:13.078Z,39.06
2019-02-19T06:04:09.658Z,38.94
2019-02-19T06:05:06.281Z,38.75
2019-02-19T06:06:02.893Z,38.56
2019-02-19T06:06:59.489Z,38.38
2019-02-19T06:07:56.125Z,38.25
2019-02-19T06:08:52.830Z,38.13
2019-02-19T06:09:49.773Z,38.00
2019-02-19T06:10:46.410Z,37.81
2019-02-19T06:11:43.266Z,37.38
2019-02-19T06:12:39.851Z,36.75
2019-02-19T06:13:36.476Z,35.81
2019-02-19T06:14:33.176Z,34.63
2019-02-19T06:15:30.118Z,33.31
2019-02-19T06:16:26.717Z,32.25
2019-02-19T06:17:23.308Z,32.06
2019-02-19T06:18:19.922Z,33.00
2019-02-19T06:19:16.802Z,34.50
2019-02-19T06:20:13.526Z,36.13
2019-02-19T06:21:10.123Z,37.63
2019-02-19T06:22:07.029Z,38.56
2019-02-19T06:23:03.639Z,38.94
2019-02-19T06:24:00.227Z,38.94
2019-02-19T06:24:56.831Z,38.81
2019-02-19T06:25:53.963Z,38.69
2019-02-19T06:26:50.544Z,38.50
2019-02-19T06:27:47.354Z,38.38
2019-02-19T06:28:43.938Z,38.19
2019-02-19T06:29:40.533Z,38.06
2019-02-19T06:30:37.171Z,37.88
2019-02-19T06:31:33.765Z,37.50
2019-02-19T06:32:30.383Z,36.88
2019-02-19T06:33:27.410Z,35.94
2019-02-19T06:34:24.439Z,34.75
2019-02-19T06:35:21.029Z,33.50
2019-02-19T06:36:17.721Z,32.44
2019-02-19T06:37:14.356Z,32.19
2019-02-19T06:38:11.102Z,33.06
2019-02-19T06:39:07.735Z,34.63
2019-02-19T06:40:04.390Z,36.31
2019-02-19T06:41:02.006Z,37.81
2019-02-19T06:41:58.773Z,38.69
2019-02-19T06:42:55.429Z,39.00
2019-02-19T06:43:52.022Z,38.94
2019-02-19T06:44:48.633Z,38.81
2019-02-19T06:45:45.229Z,38.63
2019-02-19T06:46:41.813Z,38.44
2019-02-19T06:47:38.485Z,38.31
2019-02-19T06:48:35.223Z,38.13
2019-02-19T06:49:31.909Z,37.88
2019-02-19T06:50:28.500Z,37.50
2019-02-19T06:51:25.098Z,36.88
2019-02-19T06:52:21.716Z,36.00
2019-02-19T06:53:18.391Z,34.94
2019-02-19T06:54:14.981Z,33.69
2019-02-19T06:55:11.746Z,32.56
2019-02-19T06:56:08.359Z,32.06
2019-02-19T06:57:04.946Z,32.63
2019-02-19T06:58:01.567Z,34.06
2019-02-19T06:58:58.285Z,35.69
2019-02-19T06:59:54.985Z,37.19
2019-02-19T07:00:51.603Z,38.25
2019-02-19T07:02:07.798Z,38.63
2019-02-19T07:03:23.991Z,38.56
2019-02-19T07:04:30.193Z,38.38
2019-02-19T07:05:26.785Z,38.13
2019-02-19T07:06:23.722Z,37.94
2019-02-19T07:07:20.345Z,37.75
2019-02-19T07:08:16.977Z,37.44
2019-02-19T07:09:13.581Z,36.94
2019-02-19T07:10:10.182Z,36.25
2019-02-19T07:11:06.765Z,35.31
2019-02-19T07:12:03.649Z,34.19
2019-02-19T07:13:00.266Z,32.94
2019-02-19T07:13:56.890Z,32.00
2019-02-19T07:14:53.482Z,31.94
2019-02-19T07:15:50.401Z,32.94
2019-02-19T07:16:46.999Z,34.44
2019-02-19T07:17:43.613Z,36.00
2019-02-19T07:18:40.210Z,37.38
2019-02-19T07:19:36.826Z,38.06
2019-02-19T07:20:33.774Z,38.25
2019-02-19T07:21:30.411Z,38.19
2019-02-19T07:22:27.046Z,38.00
2019-02-19T07:23:23.933Z,37.88
2019-02-19T07:24:20.642Z,37.63
2019-02-19T07:25:17.484Z,37.38
2019-02-19T07:26:14.085Z,37.00
2019-02-19T07:27:10.727Z,36.44
2019-02-19T07:28:07.332Z,35.63
2019-02-19T07:29:04.333Z,34.69
2019-02-19T07:30:01.977Z,33.69
2019-02-19T07:30:58.657Z,32.63
2019-02-19T07:31:55.387Z,31.87
2019-02-19T07:32:52.034Z,31.94
2019-02-19T07:33:48.711Z,32.94
2019-02-19T07:34:45.341Z,34.50
2019-02-19T07:35:41.974Z,36.06
2019-02-19T07:36:38.606Z,37.38
2019-02-19T07:37:35.212Z,38.00
2019-02-19T07:38:33.638Z,38.06
2019-02-19T07:39:30.466Z,37.94
2019-02-19T07:40:27.066Z,37.81
2019-02-19T07:41:23.657Z,37.63
2019-02-19T07:42:20.263Z,37.31
2019-02-19T07:43:16.889Z,36.88
2019-02-19T07:44:13.706Z,36.38
2019-02-19T07:45:10.303Z,35.63
2019-02-19T07:46:06.889Z,34.81
2019-02-19T07:47:03.481Z,33.81
2019-02-19T07:48:00.071Z,32.75
2019-02-19T07:48:56.677Z,31.87
2019-02-19T07:49:53.298Z,31.75
2019-02-19T07:50:49.889Z,32.56
2019-02-19T07:51:46.496Z,34.00
2019-02-19T07:52:43.201Z,35.63
2019-02-19T07:53:39.877Z,37.00
2019-02-19T07:54:36.541Z,37.75
2019-02-19T07:55:33.149Z,37.94
2019-02-19T07:56:29.751Z,37.88
2019-02-19T07:57:26.365Z,37.69
2019-02-19T07:58:23.212Z,37.44
2019-02-19T07:59:19.903Z,37.13
2019-02-19T08:00:16.529Z,36.69
2019-02-19T08:01:13.130Z,36.13
2019-02-19T08:02:09.752Z,35.44
2019-02-19T08:03:06.662Z,34.69
2019-02-19T08:04:03.269Z,33.75
2019-02-19T08:05:00.302Z,32.81
2019-02-19T08:05:56.939Z,31.94
2019-02-19T08:06:53.562Z,31.56
2019-02-19T08:07:50.544Z,32.06
2019-02-19T08:08:47.167Z,33.31
2019-02-19T08:09:43.973Z,34.81
2019-02-19T08:10:40.598Z,36.25
2019-02-19T08:11:37.212Z,37.25
2019-02-19T08:12:33.824Z,37.63
2019-02-19T08:13:30.422Z,37.63
2019-02-19T08:14:28.583Z,37.44
2019-02-19T08:15:25.529Z,37.19
2019-02-19T08:16:22.146Z,36.75
2019-02-19T08:17:19.098Z,36.25
2019-02-19T08:18:15.699Z,35.63
2019-02-19T08:19:12.346Z,34.94
2019-02-19T08:20:15.337Z,34.13
2019-02-19T08:21:07.537Z,33.25
2019-02-19T08:22:04.195Z,32.38
2019-02-19T08:23:00.809Z,31.62
2019-02-19T08:23:57.436Z,31.37
2019-02-19T08:24:54.013Z,32.06
2019-02-19T08:25:50.657Z,33.31
2019-02-19T08:26:47.293Z,34.81
2019-02-19T08:27:43.970Z,36.19
2019-02-19T08:28:40.855Z,37.13
2019-02-19T08:29:37.447Z,37.38
2019-02-19T08:30:34.523Z,37.31
2019-02-19T08:31:31.174Z,37.06
2019-02-19T08:32:27.846Z,36.69
2019-02-19T08:33:24.574Z,36.19
2019-02-19T08:34:21.216Z,35.69
2019-02-19T08:35:18.211Z,35.06
2019-02-19T08:36:14.910Z,34.31
2019-02-19T08:37:11.607Z,33.50
2019-02-19T08:38:08.305Z,32.69
2019-02-19T08:39:04.978Z,31.87
2019-02-19T08:40:01.582Z,31.31
2019-02-19T08:40:58.245Z,31.44
2019-02-19T08:41:54.885Z,32.44
2019-02-19T08:42:51.490Z,33.81
2019-02-19T08:43:48.209Z,35.31
2019-02-19T08:44:44.896Z,36.56
2019-02-19T08:45:41.513Z,37.19
2019-02-19T08:46:38.125Z,37.25
2019-02-19T08:47:42.263Z,37.13
2019-02-19T08:48:33.254Z,36.75
2019-02-19T08:49:29.856Z,36.31
2019-02-19T08:50:26.833Z,35.81
2019-02-19T08:51:23.438Z,35.25
2019-02-19T08:52:20.381Z,34.56
2019-02-19T08:53:16.974Z,33.81
2019-02-19T08:54:13.608Z,33.06
2019-02-19T08:55:10.622Z,32.25
2019-02-19T08:56:07.548Z,31.56
2019-02-19T08:57:04.186Z,31.19
2019-02-19T08:58:00.787Z,31.69
2019-02-19T08:58:57.385Z,32.88
2019-02-19T08:59:54.065Z,34.31
2019-02-19T09:00:51.100Z,35.75
2019-02-19T09:01:47.790Z,36.81
2019-02-19T09:02:45.911Z,37.25
2019-02-19T09:03:42.605Z,37.19
2019-02-19T09:04:39.220Z,37.00
2019-02-19T09:05:36.083Z,36.56
2019-02-19T09:06:32.770Z,36.06
2019-02-19T09:07:29.370Z,35.50
2019-02-19T09:08:25.995Z,34.88
2019-02-19T09:09:22.601Z,34.19
2019-02-19T09:10:19.197Z,33.50
2019-02-19T09:11:15.782Z,32.75
2019-02-19T09:12:12.631Z,31.94
2019-02-19T09:13:09.259Z,31.31
2019-02-19T09:14:06.192Z,31.19
2019-02-19T09:15:02.866Z,31.94
2019-02-19T09:15:59.492Z,33.19
2019-02-19T09:16:56.185Z,34.69
2019-02-19T09:17:53.037Z,36.00
2019-02-19T09:18:51.071Z,36.88
2019-02-19T09:19:47.829Z,37.06
2019-02-19T09:20:44.509Z,36.94
2019-02-19T09:21:41.315Z,36.56
2019-02-19T09:22:38.254Z,36.13
2019-02-19T09:23:34.987Z,35.63
2019-02-19T09:24:31.602Z,35.00
2019-02-19T09:25:28.214Z,34.38
2019-02-19T09:26:24.998Z,33.63
2019-02-19T09:27:21.629Z,33.00
2019-02-19T09:28:18.241Z,32.25
2019-02-19T09:29:14.842Z,31.56
2019-02-19T09:30:11.534Z,31.06
2019-02-19T09:31:08.272Z,31.12
2019-02-19T09:32:04.940Z,32.06
2019-02-19T09:33:01.658Z,33.38
2019-02-19T09:33:58.274Z,34.81
2019-02-19T09:34:55.193Z,36.06
2019-02-19T09:35:51.795Z,36.69
2019-02-19T09:36:48.382Z,36.75
2019-02-19T09:37:45.005Z,36.50
2019-02-19T09:38:41.733Z,36.13
2019-02-19T09:39:38.412Z,35.63
2019-02-19T09:40:34.998Z,35.13
2019-02-19T09:41:31.597Z,34.56
2019-02-19T09:42:28.285Z,33.94
2019-02-19T09:43:24.893Z,33.25
2019-02-19T09:44:21.514Z,32.56
2019-02-19T09:45:18.140Z,31.94
2019-02-19T09:46:14.938Z,31.25
2019-02-19T09:47:11.510Z,30.81
2019-02-19T09:48:08.114Z,31.06
2019-02-19T09:49:04.761Z,31.94
2019-02-19T09:50:01.365Z,33.25
2019-02-19T09:50:57.990Z,34.63
2019-02-19T09:51:54.785Z,35.75
2019-02-19T09:52:58.002Z,36.38
2019-02-19T09:53:49.934Z,36.38
2019-02-19T09:54:46.550Z,36.06
2019-02-19T09:55:43.873Z,35.63
2019-02-19T09:56:40.644Z,35.19
2019-02-19T09:57:37.240Z,34.63
2019-02-19T09:58:33.856Z,34.06
2019-02-19T09:59:30.554Z,33.44
2019-02-19T10:00:27.304Z,32.81
2019-02-19T10:01:23.892Z,32.25
2019-02-19T10:02:20.510Z,31.69
2019-02-19T10:03:17.287Z,31.19
2019-02-19T10:04:14.043Z,30.81
2019-02-19T10:05:10.675Z,30.44
2019-02-19T10:06:07.273Z,30.19
2019-02-19T10:07:03.877Z,29.87
2019-02-19T10:08:00.483Z,29.56
2019-02-19T10:08:57.109Z,29.31
2019-02-19T10:09:54.006Z,29.06
2019-02-19T10:10:50.679Z,28.81
2019-02-19T10:11:47.279Z,28.62
2019-02-19T10:12:43.910Z,28.44
2019-02-19T10:13:40.691Z,28.31
2019-02-19T10:14:37.410Z,28.19
2019-02-19T10:15:34.006Z,28.12
2019-02-19T10:16:30.690Z,28.06
2019-02-19T10:17:27.519Z,28.00
2019-02-19T10:18:24.133Z,27.87
2019-02-19T10:19:20.738Z,27.81
2019-02-19T10:20:17.375Z,27.75
2019-02-19T10:21:13.990Z,27.69
2019-02-19T10:22:10.690Z,27.62
2019-02-19T10:23:07.400Z,27.56
2019-02-19T10:24:04.029Z,27.50
2019-02-19T10:25:00.679Z,27.44
2019-02-19T10:25:57.325Z,27.37
2019-02-19T10:26:54.165Z,27.31
2019-02-19T10:27:50.870Z,27.25
2019-02-19T10:28:47.879Z,27.19
2019-02-19T10:29:44.619Z,27.13
2019-02-19T10:30:41.377Z,27.06
2019-02-19T10:31:38.034Z,27.00
2019-02-19T10:32:34.634Z,26.94
2019-02-19T10:33:31.255Z,26.87
2019-02-19T10:34:27.958Z,26.81
2019-02-19T10:35:24.571Z,26.75
2019-02-19T10:36:21.261Z,26.69
2019-02-19T10:37:17.846Z,26.69
2019-02-19T10:38:14.466Z,26.62
2019-02-19T10:39:11.702Z,26.56
2019-02-19T10:40:08.359Z,26.50
2019-02-19T10:41:05.075Z,26.44
2019-02-19T10:42:01.743Z,26.37
2019-02-19T10:42:58.372Z,26.31
2019-02-19T10:43:55.103Z,26.31
2019-02-19T10:44:51.810Z,26.25
2019-02-19T10:45:48.453Z,26.19
2019-02-19T10:46:45.065Z,26.12
2019-02-19T10:47:41.705Z,26.12
2019-02-19T10:48:38.401Z,26.06
2019-02-19T10:49:35.144Z,26.00
2019-02-19T10:50:31.762Z,25.94
2019-02-19T10:51:28.386Z,25.88
2019-02-19T10:52:25.001Z,25.88
2019-02-19T10:53:21.606Z,25.81
2019-02-19T10:54:18.275Z,25.75
2019-02-19T10:55:14.900Z,25.75
2019-02-19T10:56:11.657Z,25.69
2019-02-19T10:57:08.270Z,25.62
2019-02-19T10:58:04.855Z,25.62
2019-02-19T10:59:01.469Z,25.56
2019-02-19T10:59:58.069Z,25.50
2019-02-19T11:00:55.057Z,25.50
2019-02-19T11:01:51.721Z,25.44
2019-02-19T11:02:48.322Z,25.37
2019-02-19T11:03:44.918Z,25.37
2019-02-19T11:04:41.706Z,25.31
2019-02-19T11:05:38.348Z,25.31
2019-02-19T11:06:35.023Z,25.25
2019-02-19T11:07:31.872Z,25.19
2019-02-19T11:08:28.556Z,25.19
2019-02-19T11:09:25.160Z,25.12
2019-02-19T11:10:21.759Z,25.06
2019-02-19T11:11:18.464Z,25.06
2019-02-19T11:12:16.173Z,25.00
2019-02-19T11:13:12.798Z,25.00
2019-02-19T11:14:09.474Z,24.94
2019-02-19T11:15:06.089Z,24.94
2019-02-19T11:16:03.406Z,24.87
2019-02-19T11:17:00.223Z,24.87
2019-02-19T11:17:57.204Z,24.81
2019-02-19T11:18:53.825Z,24.81
2019-02-19T11:19:50.552Z,24.75
2019-02-19T11:20:47.246Z,24.69
2019-02-19T11:21:43.996Z,24.69
2019-02-19T11:22:40.594Z,24.63
2019-02-19T11:23:37.187Z,24.63
2019-02-19T11:24:34.426Z,24.56
2019-02-19T11:25:31.029Z,24.56
2019-02-19T11:26:27.721Z,24.50
2019-02-19T11:27:24.365Z,24.50
2019-02-19T11:28:20.956Z,24.50
2019-02-19T11:29:17.562Z,24.44
2019-02-19T11:30:14.174Z,24.44
2019-02-19T11:31:10.877Z,24.37
2019-02-19T11:32:07.525Z,24.37
2019-02-19T11:33:04.146Z,24.31
2019-02-19T11:34:00.771Z,24.31
2019-02-19T11:34:57.416Z,24.25
2019-02-19T11:35:54.880Z,24.25
2019-02-19T11:36:51.873Z,24.25
2019-02-19T11:37:48.546Z,24.19
2019-02-19T11:38:45.166Z,24.19
2019-02-19T11:39:42.089Z,24.12
2019-02-19T11:40:38.689Z,24.12
2019-02-19T11:41:35.293Z,24.12
2019-02-19T11:42:31.998Z,24.06
2019-02-19T11:43:28.601Z,24.06
2019-02-19T11:44:25.206Z,24.00
2019-02-19T11:45:21.956Z,24.00
2019-02-19T11:46:18.623Z,23.94
2019-02-19T11:47:15.237Z,23.94
2019-02-19T11:48:12.139Z,23.94
2019-02-19T11:49:08.741Z,23.87
2019-02-19T11:50:05.363Z,23.87
2019-02-19T11:51:02.088Z,23.81
2019-02-19T11:51:58.798Z,23.81
2019-02-19T11:52:55.434Z,23.81
2019-02-19T11:53:52.169Z,23.75
2019-02-19T11:54:48.862Z,23.75
2019-02-19T11:55:45.663Z,23.75
2019-02-19T11:56:42.365Z,23.69
2019-02-19T11:57:38.976Z,23.69
2019-02-19T11:58:35.590Z,23.62
2019-02-19T11:59:32.471Z,23.62
2019-02-19T12:00:35.082Z,23.62
2019-02-19T12:01:31.718Z,23.56
2019-02-19T12:02:32.970Z,23.56
2019-02-19T12:03:26.974Z,23.56
2019-02-19T12:04:23.576Z,23.50
2019-02-19T12:05:20.170Z,23.50
2019-02-19T12:06:16.803Z,23.50
2019-02-19T12:07:13.409Z,23.44
2019-02-19T12:08:10.033Z,23.44
2019-02-19T12:09:06.970Z,23.44
2019-02-19T12:10:03.994Z,23.38
2019-02-19T12:11:00.624Z,23.38
2019-02-19T12:11:57.319Z,23.31